createdAt,value
2023-07-14T00:00:48.744Z,6553.12
2023-07-14T00:01:42.500Z,6553.12
2023-07-14T00:02:42.497Z,6553.12
2023-07-14T00:03:42.494Z,6553.12
2023-07-14T00:04:42.529Z,6553.12
2023-07-14T00:05:42.409Z,6553.12
2023-07-14T00:06:48.673Z,6553.12
2023-07-14T00:07:42.380Z,6553.12
2023-07-14T00:08:42.402Z,6553.12
2023-07-14T00:09:42.453Z,6553.12
2023-07-14T00:10:42.377Z,6553.12
2023-07-14T00:11:48.631Z,6553.12
2023-07-14T00:12:42.357Z,6553.12
2023-07-14T00:13:42.311Z,6553.12
2023-07-14T00:14:42.335Z,6553.12
2023-07-14T00:15:42.336Z,6553.12
2023-07-14T00:16:48.597Z,6553.12
2023-07-14T00:17:42.304Z,6553.12
2023-07-14T00:18:42.228Z,6553.12
2023-07-14T00:19:42.212Z,6553.12
2023-07-14T00:20:42.262Z,6553.12
2023-07-14T00:21:48.422Z,6553.12
2023-07-14T00:22:43.100Z,6553.12
2023-07-14T00:23:42.198Z,6553.12
2023-07-14T00:24:42.170Z,6553.12
2023-07-14T00:25:42.145Z,6553.12
2023-07-14T00:26:48.534Z,6553.12
2023-07-14T00:27:42.124Z,6553.12
2023-07-14T00:28:42.117Z,6553.12
2023-07-14T00:29:42.087Z,6553.12
2023-07-14T00:30:42.131Z,6553.12
2023-07-14T00:31:42.318Z,6553.12
2023-07-14T00:32:48.389Z,6553.12
2023-07-14T00:33:42.060Z,6553.12
2023-07-14T00:34:42.055Z,6553.12
2023-07-14T00:35:42.023Z,6553.12
2023-07-14T00:36:42.036Z,6553.12
2023-07-14T00:37:42.058Z,6553.12
2023-07-14T00:38:48.255Z,6553.12
2023-07-14T00:39:41.965Z,6553.12
2023-07-14T00:40:42.037Z,6553.12
2023-07-14T00:41:41.949Z,6553.12
2023-07-14T00:42:42.043Z,6553.12
2023-07-14T00:43:41.962Z,6553.12
2023-07-14T00:44:48.222Z,6553.12
2023-07-14T00:45:43.379Z,6553.12
2023-07-14T00:46:42.022Z,6553.12
2023-07-14T00:47:42.039Z,6553.12
2023-07-14T00:48:41.888Z,6553.12
2023-07-14T00:49:41.933Z,6553.12
2023-07-14T00:50:48.102Z,6553.12
2023-07-14T00:51:41.871Z,6553.12
2023-07-14T00:52:41.778Z,6553.12
2023-07-14T00:53:41.942Z,6553.12
2023-07-14T00:54:41.887Z,6553.12
2023-07-14T00:55:41.750Z,6553.12
2023-07-14T00:56:48.037Z,6553.12
2023-07-14T00:57:41.712Z,6553.12
2023-07-14T00:58:41.777Z,6553.12
2023-07-14T00:59:41.921Z,6553.12
2023-07-14T01:00:41.678Z,6553.12
2023-07-14T01:01:47.921Z,6553.12
2023-07-14T01:02:41.794Z,6553.12
2023-07-14T01:03:41.789Z,6553.12
2023-07-14T01:04:41.679Z,6553.12
2023-07-14T01:05:41.635Z,6553.12
2023-07-14T01:06:41.640Z,6553.12
2023-07-14T01:07:47.912Z,6553.12
2023-07-14T01:08:41.599Z,6553.12
2023-07-14T01:09:41.607Z,6553.12
2023-07-14T01:10:41.579Z,6553.12
2023-07-14T01:11:41.540Z,6553.12
2023-07-14T01:12:41.546Z,6553.12
2023-07-14T01:13:47.862Z,6553.12
2023-07-14T01:14:41.504Z,6553.12
2023-07-14T01:15:41.588Z,6553.12
2023-07-14T01:16:41.537Z,6553.12
2023-07-14T01:17:42.426Z,6553.12
2023-07-14T01:18:41.453Z,6553.12
2023-07-14T01:19:47.696Z,6553.12
2023-07-14T01:20:41.440Z,6553.12
2023-07-14T01:21:41.435Z,6553.12
2023-07-14T01:22:41.470Z,6553.12
2023-07-14T01:23:41.387Z,6553.12
2023-07-14T01:24:41.424Z,6553.12
2023-07-14T01:25:47.608Z,6553.12
2023-07-14T01:26:42.290Z,6553.12
2023-07-14T01:27:41.343Z,6553.12
2023-07-14T01:28:41.319Z,6553.12
2023-07-14T01:29:41.344Z,6553.12
2023-07-14T01:30:41.290Z,6553.12
2023-07-14T01:31:47.602Z,6553.12
2023-07-14T01:32:41.351Z,6553.12
2023-07-14T01:33:41.277Z,6553.12
2023-07-14T01:34:41.244Z,6553.12
2023-07-14T01:35:41.261Z,6553.12
2023-07-14T01:36:47.472Z,6553.12
2023-07-14T01:37:41.261Z,6553.12
2023-07-14T01:38:41.193Z,6553.12
2023-07-14T01:39:41.177Z,6553.12
2023-07-14T01:40:41.214Z,6553.12
2023-07-14T01:41:47.438Z,6553.12
2023-07-14T01:42:41.162Z,6553.12
2023-07-14T01:43:41.130Z,6553.12
2023-07-14T01:44:41.132Z,6553.12
2023-07-14T01:45:41.087Z,6553.12
2023-07-14T01:46:47.471Z,6553.12
2023-07-14T01:47:41.138Z,6553.12
2023-07-14T01:48:41.146Z,6553.12
2023-07-14T01:49:41.094Z,6553.12
2023-07-14T01:50:41.057Z,6553.12
2023-07-14T01:51:47.341Z,6553.12
2023-07-14T01:52:41.011Z,6553.12
2023-07-14T01:53:41.021Z,6553.12
2023-07-14T01:54:41.053Z,6553.12
2023-07-14T01:55:41.070Z,6553.12
2023-07-14T01:56:41.035Z,6553.12
2023-07-14T01:57:47.303Z,6553.12
2023-07-14T01:58:40.941Z,6553.12
2023-07-14T01:59:40.978Z,6553.12
2023-07-14T02:00:40.974Z,6553.12
2023-07-14T02:01:40.968Z,6553.12
2023-07-14T02:02:41.103Z,6553.12
2023-07-14T02:03:47.201Z,6553.12
2023-07-14T02:04:40.908Z,6553.12
2023-07-14T02:05:40.914Z,6553.12
2023-07-14T02:06:40.851Z,6553.12
2023-07-14T02:07:40.857Z,6553.12
2023-07-14T02:08:40.822Z,6553.12
2023-07-14T02:09:47.146Z,6553.12
2023-07-14T02:10:40.800Z,6553.12
2023-07-14T02:11:40.777Z,6553.12
2023-07-14T02:12:40.755Z,6553.12
2023-07-14T02:13:40.741Z,6553.12
2023-07-14T02:14:40.754Z,6553.12
2023-07-14T02:15:46.960Z,6553.12
2023-07-14T02:16:40.708Z,6553.12
2023-07-14T02:17:40.768Z,6553.12
2023-07-14T02:18:40.678Z,6553.12
2023-07-14T02:19:40.692Z,6553.12
2023-07-14T02:20:40.689Z,6553.12
2023-07-14T02:21:46.905Z,6553.12
2023-07-14T02:22:40.728Z,6553.12
2023-07-14T02:23:40.648Z,6553.12
2023-07-14T02:24:40.620Z,6553.12
2023-07-14T02:25:40.588Z,6553.12
2023-07-14T02:26:40.612Z,6553.12
2023-07-14T02:27:46.895Z,6553.12
2023-07-14T02:28:40.637Z,6553.12
2023-07-14T02:29:40.559Z,6553.12
2023-07-14T02:30:40.577Z,6553.12
2023-07-14T02:31:40.562Z,6553.12
2023-07-14T02:32:40.549Z,6553.12
2023-07-14T02:33:46.819Z,6553.12
2023-07-14T02:34:40.503Z,6553.12
2023-07-14T02:35:40.528Z,6553.12
2023-07-14T02:36:40.479Z,6553.12
2023-07-14T02:37:40.460Z,6553.12
2023-07-14T02:38:40.499Z,6553.12
2023-07-14T02:39:46.640Z,6553.12
2023-07-14T02:40:40.401Z,6553.12
2023-07-14T02:41:40.384Z,6553.12
2023-07-14T02:42:40.410Z,6553.12
2023-07-14T02:43:40.385Z,6553.12
2023-07-14T02:44:40.343Z,6553.12
2023-07-14T02:45:46.604Z,6553.12
2023-07-14T02:46:40.372Z,6553.12
2023-07-14T02:47:40.309Z,6553.12
2023-07-14T02:48:40.306Z,6553.12
2023-07-14T02:49:40.292Z,6553.12
2023-07-14T02:50:46.559Z,6553.12
2023-07-14T02:51:40.259Z,6553.12
2023-07-14T02:52:40.236Z,6553.12
2023-07-14T02:53:40.316Z,6553.12
2023-07-14T02:54:40.238Z,6553.12
2023-07-14T02:55:40.369Z,6553.12
2023-07-14T02:56:46.437Z,6553.12
2023-07-14T02:57:40.198Z,6553.12
2023-07-14T02:58:40.220Z,6553.12
2023-07-14T02:59:40.173Z,6553.12
2023-07-14T03:00:40.187Z,6553.12
2023-07-14T03:01:46.438Z,6553.12
2023-07-14T03:02:40.254Z,6553.12
2023-07-14T03:03:40.174Z,6553.12
2023-07-14T03:04:40.103Z,6553.12
2023-07-14T03:05:40.092Z,6553.12
2023-07-14T03:06:47.904Z,6553.12
2023-07-14T03:07:40.077Z,6553.12
2023-07-14T03:08:40.125Z,6553.12
2023-07-14T03:09:40.033Z,6553.12
2023-07-14T03:10:40.076Z,6553.12
2023-07-14T03:11:46.247Z,6553.12
2023-07-14T03:12:39.977Z,6553.12
2023-07-14T03:13:39.967Z,6553.12
2023-07-14T03:14:40.015Z,6553.12
2023-07-14T03:15:39.947Z,6553.12
2023-07-14T03:16:46.270Z,6553.12
2023-07-14T03:17:40.015Z,6553.12
2023-07-14T03:18:39.943Z,6553.12
2023-07-14T03:19:39.929Z,6553.12
2023-07-14T03:20:39.955Z,6553.12
2023-07-14T03:21:39.912Z,6553.12
2023-07-14T03:22:46.208Z,6553.12
2023-07-14T03:23:39.853Z,6553.12
2023-07-14T03:24:39.841Z,6553.12
2023-07-14T03:25:39.838Z,6553.12
2023-07-14T03:26:39.860Z,6553.12
2023-07-14T03:27:39.857Z,6553.12
2023-07-14T03:28:46.032Z,6553.12
2023-07-14T03:29:39.793Z,6553.12
2023-07-14T03:30:39.763Z,6553.12
2023-07-14T03:31:39.852Z,6553.12
2023-07-14T03:32:39.790Z,6553.12
2023-07-14T03:33:39.773Z,6553.12
2023-07-14T03:34:45.959Z,6553.12
2023-07-14T03:35:39.682Z,6553.12
2023-07-14T03:36:39.724Z,6553.12
2023-07-14T03:37:39.751Z,6553.12
2023-07-14T03:38:39.648Z,6553.12
2023-07-14T03:39:45.943Z,6553.12
2023-07-14T03:40:39.668Z,6553.12
2023-07-14T03:41:39.602Z,6553.12
2023-07-14T03:42:39.615Z,6553.12
2023-07-14T03:43:39.633Z,6553.12
2023-07-14T03:44:45.904Z,6553.12
2023-07-14T03:45:39.543Z,6553.12
2023-07-14T03:46:39.631Z,6553.12
2023-07-14T03:47:39.579Z,6553.12
2023-07-14T03:48:40.434Z,6553.12
2023-07-14T03:49:45.884Z,6553.12
2023-07-14T03:50:39.545Z,6553.12
2023-07-14T03:51:39.564Z,6553.12
2023-07-14T03:52:39.460Z,6553.12
2023-07-14T03:53:39.539Z,6553.12
2023-07-14T03:54:39.501Z,6553.12
2023-07-14T03:55:45.693Z,6553.12
2023-07-14T03:56:39.451Z,6553.12
2023-07-14T03:57:52.949Z,6553.12
2023-07-14T03:58:40.434Z,6553.12
2023-07-14T03:59:39.387Z,6553.12
2023-07-14T04:00:45.634Z,6553.12
2023-07-14T04:01:39.401Z,6553.12
2023-07-14T04:02:39.378Z,6553.12
2023-07-14T04:03:39.362Z,6553.12
2023-07-14T04:04:39.340Z,6553.12
2023-07-14T04:05:45.561Z,6553.12
2023-07-14T04:06:39.312Z,6553.12
2023-07-14T04:07:39.368Z,6553.12
2023-07-14T04:08:39.298Z,6553.12
2023-07-14T04:09:39.281Z,6553.12
2023-07-14T04:10:45.567Z,6553.12
2023-07-14T04:11:39.231Z,6553.12
2023-07-14T04:12:39.233Z,6553.12
2023-07-14T04:13:39.244Z,6553.12
2023-07-14T04:14:39.236Z,6553.12
2023-07-14T04:15:45.440Z,6553.12
2023-07-14T04:16:39.326Z,6553.12
2023-07-14T04:17:39.145Z,6553.12
2023-07-14T04:18:39.171Z,6553.12
2023-07-14T04:19:39.160Z,6553.12
2023-07-14T04:20:45.411Z,6553.12
2023-07-14T04:21:39.177Z,6553.12
2023-07-14T04:22:40.180Z,6553.12
2023-07-14T04:23:43.058Z,6553.12
2023-07-14T04:24:39.069Z,6553.12
2023-07-14T04:25:39.115Z,6553.12
2023-07-14T04:26:45.298Z,6553.12
2023-07-14T04:27:39.016Z,6553.12
2023-07-14T04:28:39.035Z,6553.12
2023-07-14T04:29:39.121Z,6553.12
2023-07-14T04:30:39.105Z,6553.12
2023-07-14T04:31:39.020Z,6553.12
2023-07-14T04:32:45.269Z,6553.12
2023-07-14T04:33:39.022Z,6553.12
2023-07-14T04:34:38.935Z,6553.12
2023-07-14T04:35:38.953Z,6553.12
2023-07-14T04:36:38.946Z,6553.12
2023-07-14T04:37:38.920Z,6553.12
2023-07-14T04:38:45.135Z,6553.12
2023-07-14T04:39:38.890Z,6553.12
2023-07-14T04:40:38.937Z,6553.12
2023-07-14T04:41:39.081Z,6553.12
2023-07-14T04:42:38.867Z,6553.12
2023-07-14T04:43:38.823Z,6553.12
2023-07-14T04:44:45.096Z,6553.12
2023-07-14T04:45:38.937Z,6553.12
2023-07-14T04:46:38.976Z,6553.12
2023-07-14T04:47:38.846Z,6553.12
2023-07-14T04:48:38.798Z,6553.12
2023-07-14T04:49:44.985Z,6553.12
2023-07-14T04:50:38.853Z,6553.12
2023-07-14T04:51:38.774Z,6553.12
2023-07-14T04:52:38.744Z,6553.12
2023-07-14T04:53:38.767Z,6553.12
2023-07-14T04:54:38.672Z,6553.12
2023-07-14T04:55:44.921Z,6553.12
2023-07-14T04:56:38.693Z,6553.12
2023-07-14T04:57:38.616Z,6553.12
2023-07-14T04:58:38.661Z,6553.12
2023-07-14T04:59:38.593Z,6553.12
2023-07-14T05:00:44.877Z,6553.12
2023-07-14T05:01:38.672Z,6553.12
2023-07-14T05:02:38.653Z,6553.12
2023-07-14T05:03:38.680Z,6553.12
2023-07-14T05:04:45.298Z,6553.12
2023-07-14T05:05:46.262Z,6553.12
2023-07-14T05:06:38.551Z,6553.12
2023-07-14T05:07:38.518Z,6553.12
2023-07-14T05:08:38.493Z,6553.12
2023-07-14T05:09:38.540Z,6553.12
2023-07-14T05:10:44.730Z,6553.12
2023-07-14T05:11:38.516Z,6553.12
2023-07-14T05:12:38.457Z,6553.12
2023-07-14T05:13:38.435Z,6553.12
2023-07-14T05:14:39.598Z,6553.12
2023-07-14T05:15:47.798Z,6553.12
2023-07-14T05:16:38.429Z,6553.12
2023-07-14T05:17:38.383Z,6553.12
2023-07-14T05:18:38.382Z,6553.12
2023-07-14T05:19:38.363Z,6553.12
2023-07-14T05:20:38.356Z,6553.12
2023-07-14T05:21:44.602Z,6553.12
2023-07-14T05:22:38.376Z,6553.12
2023-07-14T05:23:38.323Z,6553.12
2023-07-14T05:24:38.333Z,6553.12
2023-07-14T05:25:38.294Z,6553.12
2023-07-14T05:26:38.259Z,6553.12
2023-07-14T05:27:44.546Z,6553.12
2023-07-14T05:28:38.331Z,6553.12
2023-07-14T05:29:38.306Z,6553.12
2023-07-14T05:30:38.213Z,6553.12
2023-07-14T05:31:38.204Z,6553.12
2023-07-14T05:32:38.296Z,6553.12
2023-07-14T05:33:44.418Z,6553.12
2023-07-14T05:34:38.158Z,6553.12
2023-07-14T05:35:38.155Z,6553.12
2023-07-14T05:36:38.139Z,6553.12
2023-07-14T05:37:38.160Z,6553.12
2023-07-14T05:38:44.329Z,6553.12
2023-07-14T05:39:38.142Z,6553.12
2023-07-14T05:40:51.231Z,6553.12
2023-07-14T05:41:39.586Z,6553.12
2023-07-14T05:42:38.058Z,6553.12
2023-07-14T05:43:38.102Z,6553.12
2023-07-14T05:44:44.312Z,6553.12
2023-07-14T05:45:38.019Z,6553.12
2023-07-14T05:46:38.043Z,6553.12
2023-07-14T05:47:38.132Z,6553.12
2023-07-14T05:48:38.022Z,6553.12
2023-07-14T05:49:37.999Z,6553.12
2023-07-14T05:50:44.190Z,6553.12
2023-07-14T05:51:37.936Z,6553.12
2023-07-14T05:52:37.936Z,6553.12
2023-07-14T05:53:37.915Z,6553.12
2023-07-14T05:54:37.910Z,6553.12
2023-07-14T05:55:37.898Z,6553.12
2023-07-14T05:56:45.052Z,6553.12
2023-07-14T05:57:37.861Z,6553.12
2023-07-14T05:58:37.868Z,6553.12
2023-07-14T05:59:37.913Z,6553.12
2023-07-14T06:00:39.682Z,6553.12
2023-07-14T06:01:37.916Z,6553.12
2023-07-14T06:02:44.141Z,6553.12
2023-07-14T06:03:37.920Z,6553.12
2023-07-14T06:04:37.869Z,6553.12
2023-07-14T06:05:37.823Z,6553.12
2023-07-14T06:06:38.004Z,6553.12
2023-07-14T06:07:44.090Z,6553.12
2023-07-14T06:08:37.774Z,6553.12
2023-07-14T06:09:37.746Z,6553.12
2023-07-14T06:10:37.764Z,6553.12
2023-07-14T06:11:37.729Z,6553.12
2023-07-14T06:12:44.034Z,6553.12
2023-07-14T06:13:37.781Z,6553.12
2023-07-14T06:14:37.666Z,6553.12
2023-07-14T06:15:37.665Z,6553.12
2023-07-14T06:16:37.813Z,6553.12
2023-07-14T06:17:37.751Z,6553.12
2023-07-14T06:18:43.887Z,6553.12
2023-07-14T06:19:37.585Z,6553.12
2023-07-14T06:20:37.580Z,6553.12
2023-07-14T06:21:37.546Z,6553.12
2023-07-14T06:22:37.643Z,6553.12
2023-07-14T06:23:43.814Z,6553.12
2023-07-14T06:24:37.690Z,6553.12
2023-07-14T06:25:37.528Z,6553.12
2023-07-14T06:26:38.574Z,6553.12
2023-07-14T06:27:37.493Z,6553.12
2023-07-14T06:28:37.591Z,6553.12
2023-07-14T06:29:43.684Z,6553.12
2023-07-14T06:30:37.508Z,6553.12
2023-07-14T06:31:37.409Z,6553.12
2023-07-14T06:32:37.470Z,6553.12
2023-07-14T06:33:37.458Z,6553.12
2023-07-14T06:34:43.776Z,6553.12
2023-07-14T06:35:37.407Z,6553.12
2023-07-14T06:36:37.391Z,6553.12
2023-07-14T06:37:37.571Z,6553.12
2023-07-14T06:38:37.391Z,6553.12
2023-07-14T06:39:43.689Z,6553.12
2023-07-14T06:40:37.412Z,6553.12
2023-07-14T06:41:37.351Z,6553.12
2023-07-14T06:42:37.319Z,6553.12
2023-07-14T06:43:37.275Z,6553.12
2023-07-14T06:44:43.552Z,6553.12
2023-07-14T06:45:37.222Z,6553.12
2023-07-14T06:46:37.257Z,6553.12
2023-07-14T06:47:37.308Z,6553.12
2023-07-14T06:48:37.252Z,6553.12
2023-07-14T06:49:43.461Z,6553.12
2023-07-14T06:50:37.255Z,6553.12
2023-07-14T06:51:37.195Z,6553.12
2023-07-14T06:52:37.169Z,6553.12
2023-07-14T06:53:37.159Z,6553.12
2023-07-14T06:54:38.831Z,6553.12
2023-07-14T06:55:43.735Z,6553.12
2023-07-14T06:56:37.127Z,6553.12
2023-07-14T06:57:37.130Z,6553.12
2023-07-14T06:58:37.144Z,6553.12
2023-07-14T06:59:37.077Z,6553.12
2023-07-14T07:00:43.396Z,6553.12
2023-07-14T07:01:37.118Z,6553.12
2023-07-14T07:02:37.169Z,6553.12
2023-07-14T07:03:37.141Z,6553.12
2023-07-14T07:04:37.043Z,6553.12
2023-07-14T07:05:37.135Z,6553.12
2023-07-14T07:06:43.363Z,6553.12
2023-07-14T07:07:36.974Z,6553.12
2023-07-14T07:08:36.965Z,6553.12
2023-07-14T07:09:36.962Z,6553.12
2023-07-14T07:10:36.985Z,6553.12
2023-07-14T07:11:36.989Z,6553.12
2023-07-14T07:12:43.312Z,6553.12
2023-07-14T07:13:36.925Z,6553.12
2023-07-14T07:14:36.895Z,6553.12
2023-07-14T07:15:36.992Z,6553.12
2023-07-14T07:16:36.921Z,6553.12
2023-07-14T07:17:37.591Z,6553.12
2023-07-14T07:18:43.237Z,6553.12
2023-07-14T07:19:36.787Z,6553.12
2023-07-14T07:20:36.817Z,6553.12
2023-07-14T07:21:36.856Z,6553.12
2023-07-14T07:22:36.882Z,6553.12
2023-07-14T07:23:36.946Z,6553.12
2023-07-14T07:24:43.256Z,6553.12
2023-07-14T07:25:36.733Z,6553.12
2023-07-14T07:26:37.861Z,6553.12
2023-07-14T07:27:36.806Z,6553.12
2023-07-14T07:28:36.878Z,6553.12
2023-07-14T07:29:36.714Z,6553.12
2023-07-14T07:30:42.967Z,6553.12
2023-07-14T07:31:36.696Z,6553.12
2023-07-14T07:32:36.676Z,6553.12
2023-07-14T07:33:36.725Z,6553.12
2023-07-14T07:34:36.650Z,6553.12
2023-07-14T07:35:42.893Z,6553.12
2023-07-14T07:36:36.579Z,6553.12
2023-07-14T07:37:36.627Z,6553.12
2023-07-14T07:38:36.568Z,6553.12
2023-07-14T07:39:36.630Z,6553.12
2023-07-14T07:40:36.747Z,6553.12
2023-07-14T07:41:45.775Z,6553.12
2023-07-14T07:42:36.600Z,6553.12
2023-07-14T07:43:36.555Z,6553.12
2023-07-14T07:44:36.482Z,6553.12
2023-07-14T07:45:36.565Z,6553.12
2023-07-14T07:46:36.506Z,6553.12
2023-07-14T07:47:43.005Z,6553.12
2023-07-14T07:48:36.611Z,6553.12
2023-07-14T07:49:36.560Z,6553.12
2023-07-14T07:50:36.504Z,6553.12
2023-07-14T07:51:36.395Z,6553.12
2023-07-14T07:52:42.690Z,6553.12
2023-07-14T07:53:36.380Z,6553.12
2023-07-14T07:54:36.363Z,6553.12
2023-07-14T07:55:36.345Z,6553.12
2023-07-14T07:56:36.430Z,6553.12
2023-07-14T07:57:42.641Z,6553.12
2023-07-14T07:58:36.368Z,6553.12
2023-07-14T07:59:36.422Z,6553.12
2023-07-14T08:00:36.303Z,6553.12
2023-07-14T08:01:36.411Z,6553.12
2023-07-14T08:02:42.760Z,6553.12
2023-07-14T08:03:36.622Z,6553.12
2023-07-14T08:04:36.323Z,6553.12
2023-07-14T08:05:36.502Z,6553.12
2023-07-14T08:06:36.272Z,6553.12
2023-07-14T08:07:42.533Z,6553.12
2023-07-14T08:08:36.253Z,6553.12
2023-07-14T08:09:36.192Z,6553.12
2023-07-14T08:10:36.167Z,6553.12
2023-07-14T08:11:36.176Z,6553.12
2023-07-14T08:12:36.147Z,6553.12
2023-07-14T08:13:42.395Z,6553.12
2023-07-14T08:14:36.088Z,6553.12
2023-07-14T08:15:36.656Z,6553.12
2023-07-14T08:17:34.084Z,368634.38
2023-07-14T08:18:40.253Z,368634.38
2023-07-14T08:19:34.027Z,368634.38
2023-07-14T08:20:33.988Z,368634.38
2023-07-14T08:21:34.036Z,368634.38
2023-07-14T08:22:34.006Z,368634.38
2023-07-14T08:23:33.985Z,368634.38
2023-07-14T08:24:40.291Z,368634.38
2023-07-14T08:25:34.202Z,368634.38
2023-07-14T08:26:33.950Z,368634.38
2023-07-14T08:27:34.073Z,368634.38
2023-07-14T08:28:33.929Z,368634.38
2023-07-14T08:29:40.111Z,368634.38
2023-07-14T08:30:33.877Z,368634.38
2023-07-14T08:31:33.961Z,368634.38
2023-07-14T08:32:33.860Z,368634.38
2023-07-14T08:33:33.879Z,368634.38
2023-07-14T08:34:40.049Z,368634.38
2023-07-14T08:35:33.844Z,368634.38
2023-07-14T08:36:33.827Z,368634.38
2023-07-14T08:37:33.871Z,368634.38
2023-07-14T08:38:33.887Z,368634.38
2023-07-14T08:39:33.742Z,368634.38
2023-07-14T08:40:39.989Z,368634.38
2023-07-14T08:41:33.740Z,368634.38
2023-07-14T08:42:33.687Z,368634.38
2023-07-14T08:43:33.786Z,368634.38
2023-07-14T08:44:33.956Z,368634.38
2023-07-14T08:45:33.692Z,368634.38
2023-07-14T08:46:40.063Z,368634.38
2023-07-14T08:47:33.718Z,368634.38
2023-07-14T08:48:34.364Z,368634.38
2023-07-14T08:49:33.657Z,368634.38
2023-07-14T08:50:33.716Z,368634.38
2023-07-14T08:51:39.920Z,368634.38
2023-07-14T08:52:33.583Z,368634.38
2023-07-14T08:53:33.575Z,368634.38
2023-07-14T08:54:33.537Z,368634.38
2023-07-14T08:55:33.541Z,368634.38
2023-07-14T08:56:33.553Z,368634.38
2023-07-14T08:57:39.800Z,368634.38
2023-07-14T08:58:33.511Z,368634.38
2023-07-14T08:59:33.497Z,368634.38
2023-07-14T09:00:34.431Z,368634.38
2023-07-14T09:01:33.511Z,368634.38
2023-07-14T09:02:39.785Z,368634.38
2023-07-14T09:03:33.447Z,368634.38
2023-07-14T09:04:33.704Z,368634.38
2023-07-14T09:05:33.492Z,368634.38
2023-07-14T09:06:33.401Z,368634.38
2023-07-14T09:07:33.364Z,368634.38
2023-07-14T09:08:39.708Z,368634.38
2023-07-14T09:09:33.414Z,368634.38
2023-07-14T09:10:33.493Z,368634.38
2023-07-14T09:11:33.343Z,368634.38
2023-07-14T09:12:33.486Z,368634.38
2023-07-14T09:13:33.373Z,368634.38
2023-07-14T09:14:39.593Z,368634.38
2023-07-14T09:15:33.323Z,368634.38
2023-07-14T09:16:33.647Z,368634.38
2023-07-14T09:17:33.351Z,368634.38
2023-07-14T09:18:33.319Z,368634.38
2023-07-14T09:19:33.248Z,368634.38
2023-07-14T09:20:39.503Z,368634.38
2023-07-14T09:21:33.366Z,368634.38
2023-07-14T09:22:33.229Z,368634.38
2023-07-14T09:23:33.175Z,368634.38
2023-07-14T09:24:33.199Z,368634.38
2023-07-14T09:25:33.225Z,368634.38
2023-07-14T09:26:39.455Z,368634.38
2023-07-14T09:27:33.201Z,368634.38
2023-07-14T09:28:33.091Z,368634.38
2023-07-14T09:29:33.130Z,368634.38
2023-07-14T09:30:33.380Z,368634.38
2023-07-14T09:31:33.213Z,368634.38
2023-07-14T09:32:39.427Z,368634.38
2023-07-14T09:33:33.175Z,368634.38
2023-07-14T09:34:33.079Z,368634.38
2023-07-14T09:35:33.111Z,368634.38
2023-07-14T09:36:33.033Z,368634.38
2023-07-14T09:37:39.283Z,368634.38
2023-07-14T09:38:33.139Z,368634.38
2023-07-14T09:39:33.010Z,368634.38
2023-07-14T09:40:33.029Z,368634.38
2023-07-14T09:41:32.959Z,368634.38
2023-07-14T09:42:33.282Z,368634.38
2023-07-14T09:43:39.274Z,368634.38
2023-07-14T09:44:32.915Z,368634.38
2023-07-14T09:45:33.076Z,368634.38
2023-07-14T09:46:33.025Z,368634.38
2023-07-14T09:47:32.969Z,368634.38
2023-07-14T09:48:32.921Z,368634.38
2023-07-14T09:49:39.314Z,368634.38
2023-07-14T09:50:32.915Z,368634.38
2023-07-14T09:51:32.870Z,368634.38
2023-07-14T09:52:32.876Z,368634.38
2023-07-14T09:53:32.810Z,368634.38
2023-07-14T09:54:32.900Z,368634.38
2023-07-14T09:55:39.055Z,368634.38
2023-07-14T09:56:32.806Z,368634.38
2023-07-14T09:57:40.460Z,368634.38
2023-07-14T09:58:34.292Z,368634.38
2023-07-14T09:59:32.780Z,368634.38
2023-07-14T10:00:39.066Z,368634.38
2023-07-14T10:01:32.749Z,368634.38
2023-07-14T10:02:32.732Z,368634.38
2023-07-14T10:03:43.431Z,368634.38
2023-07-14T10:04:34.195Z,368634.38
2023-07-14T10:05:54.889Z,368634.38
2023-07-14T10:06:32.672Z,368634.38
2023-07-14T10:07:32.691Z,368634.38
2023-07-14T10:08:32.704Z,368634.38
2023-07-14T10:09:32.639Z,368634.38
2023-07-14T10:10:32.606Z,368634.38
2023-07-14T10:11:39.023Z,368634.38
2023-07-14T10:12:33.536Z,368634.38
2023-07-14T10:13:32.656Z,368634.38
2023-07-14T10:14:32.613Z,368634.38
2023-07-14T10:15:32.565Z,368634.38
2023-07-14T10:16:32.641Z,368634.38
2023-07-14T10:17:38.866Z,368634.38
2023-07-14T10:18:32.632Z,368634.38
2023-07-14T10:19:32.518Z,368634.38
2023-07-14T10:20:33.422Z,368634.38
2023-07-14T10:21:32.575Z,368634.38
2023-07-14T10:22:38.894Z,368634.38
2023-07-14T10:23:32.501Z,368634.38
2023-07-14T10:24:32.492Z,368634.38
2023-07-14T10:25:32.464Z,368634.38
2023-07-14T10:26:32.508Z,368634.38
2023-07-14T10:27:32.515Z,368634.38
2023-07-14T10:28:38.662Z,368634.38
2023-07-14T10:29:32.401Z,368634.38
2023-07-14T10:30:32.474Z,368634.38
2023-07-14T10:31:32.387Z,368634.38
2023-07-14T10:32:32.503Z,368634.38
2023-07-14T10:33:32.571Z,368634.38
2023-07-14T10:34:39.609Z,368634.38
2023-07-14T10:35:32.343Z,368634.38
2023-07-14T10:36:32.285Z,368634.38
2023-07-14T10:37:32.391Z,368634.38
2023-07-14T10:38:32.273Z,368634.38
2023-07-14T10:39:32.339Z,368634.38
2023-07-14T10:40:38.518Z,368634.38
2023-07-14T10:41:32.260Z,368634.38
2023-07-14T10:42:32.206Z,368634.38
2023-07-14T10:43:32.258Z,368634.38
2023-07-14T10:44:32.280Z,368634.38
2023-07-14T10:45:38.518Z,368634.38
2023-07-14T10:46:32.357Z,368634.38
2023-07-14T10:47:32.212Z,368634.38
2023-07-14T10:48:32.225Z,368634.38
2023-07-14T10:49:32.846Z,368634.38
2023-07-14T10:51:44.539Z,3031.88
2023-07-14T10:52:44.613Z,3526.88
2023-07-14T10:53:44.518Z,3538.12
2023-07-14T10:54:44.530Z,3645.00
2023-07-14T10:55:50.813Z,3650.62
2023-07-14T10:56:44.466Z,3566.25
2023-07-14T10:57:44.491Z,3515.62
2023-07-14T10:58:44.458Z,3526.88
2023-07-14T10:59:44.448Z,3358.12
2023-07-14T11:00:50.686Z,961.88
2023-07-14T11:01:44.500Z,3735.00
2023-07-14T11:02:44.555Z,3633.75
2023-07-14T11:03:44.459Z,3667.50
2023-07-14T11:04:44.454Z,3628.12
2023-07-14T11:05:50.706Z,3706.88
2023-07-14T11:06:44.383Z,3808.12
2023-07-14T11:07:44.371Z,3796.88
2023-07-14T11:08:44.350Z,3954.38
2023-07-14T11:09:44.316Z,3825.00
2023-07-14T11:10:44.322Z,3785.62
2023-07-14T11:11:50.543Z,3740.62
2023-07-14T11:12:47.655Z,607.50
2023-07-14T11:13:44.309Z,320.62
2023-07-14T11:14:44.273Z,337.50
2023-07-14T11:15:44.312Z,399.38
2023-07-14T11:16:50.560Z,3819.38
2023-07-14T11:17:44.475Z,3639.38
2023-07-14T11:18:44.252Z,3588.75
2023-07-14T11:19:46.970Z,3661.88
2023-07-14T11:20:44.275Z,3836.25
2023-07-14T11:21:44.186Z,3667.50
2023-07-14T11:22:50.541Z,3729.38
2023-07-14T11:23:44.252Z,3678.75
2023-07-14T11:24:44.179Z,3628.12
2023-07-14T11:25:44.195Z,3796.88
2023-07-14T11:26:44.170Z,3746.25
2023-07-14T11:27:44.233Z,3813.75
2023-07-14T11:28:51.392Z,3841.88
2023-07-14T11:29:44.121Z,3026.25
2023-07-14T11:30:44.119Z,3661.88
2023-07-14T11:31:44.190Z,3785.62
2023-07-14T11:32:44.139Z,3898.12
2023-07-14T11:33:50.427Z,3870.00
2023-07-14T11:34:44.087Z,3864.38
2023-07-14T11:35:44.059Z,3780.00
2023-07-14T11:36:44.085Z,3780.00
2023-07-14T11:37:44.040Z,3729.38
2023-07-14T11:38:50.351Z,3695.62
2023-07-14T11:39:44.170Z,3791.25
2023-07-14T11:40:44.028Z,3746.25
2023-07-14T11:41:44.057Z,3690.00
2023-07-14T11:42:44.054Z,3735.00
2023-07-14T11:43:43.980Z,2846.25
2023-07-14T11:44:50.242Z,3161.25
2023-07-14T11:45:44.133Z,2970.00
2023-07-14T11:46:43.979Z,1001.25
2023-07-14T11:47:43.988Z,3875.62
2023-07-14T11:48:43.956Z,3836.25
2023-07-14T11:49:50.200Z,3808.12
2023-07-14T11:50:44.043Z,3330.00
2023-07-14T11:51:43.881Z,3718.12
2023-07-14T11:52:44.242Z,3594.38
2023-07-14T11:53:43.978Z,3650.62
2023-07-14T11:54:50.211Z,348.75
2023-07-14T11:55:44.880Z,455.62
2023-07-14T11:56:43.872Z,663.75
2023-07-14T11:57:44.063Z,258.75
2023-07-14T11:58:43.864Z,298.12